Time;durP1;ratioP1;P1;durP2;ratioP2;P2;SDS_P1;SDS_P2;PMS_P1;PMS_P2;Temp;Humidity;BMP_temperature;BMP_pressure;BME280_temperature;BME280_humidity;BME280_pressure;Samples;Min_cycle;Max_cycle;Signal;HPM_P1;HPM_P2
2022/09/17 00:02:26;;;;;;;4.75;3.10;;;;;;;18.37;75.14;94091.75;5074913;28;20208;-70
2022/09/17 00:04:53;;;;;;;3.83;3.47;;;;;;;18.39;75.29;94083.75;5075366;28;20184;-70
2022/09/17 00:07:20;;;;;;;4.93;3.30;;;;;;;18.38;75.02;94087.75;5076110;28;20181;-70
2022/09/17 00:09:46;;;;;;;5.50;3.53;;;;;;;18.40;74.66;94072.16;5076163;28;20212;-70
2022/09/17 00:12:13;;;;;;;3.67;3.20;;;;;;;18.40;74.91;94071.34;5075077;28;20193;-69
2022/09/17 00:14:40;;;;;;;4.03;2.78;;;;;;;18.39;75.04;94064.22;5074839;28;20240;-69
2022/09/17 00:17:08;;;;;;;3.90;3.10;;;;;;;18.37;75.13;94059.03;5075445;28;20205;-69
2022/09/17 00:19:35;;;;;;;3.65;3.05;;;;;;;18.37;75.00;94053.44;5075026;28;20221;-70
2022/09/17 00:22:02;;;;;;;3.45;2.72;;;;;;;18.39;74.66;94058.63;5075888;28;20189;-70
2022/09/17 00:24:30;;;;;;;3.65;2.72;;;;;;;18.39;74.77;94053.03;5075780;28;20185;-70
2022/09/17 00:26:57;;;;;;;4.00;2.40;;;;;;;18.39;74.81;94053.81;5074831;28;20193;-70
2022/09/17 00:29:24;;;;;;;3.53;2.60;;;;;;;18.39;74.67;94047.47;5074838;28;20201;-69
2022/09/17 00:31:51;;;;;;;4.07;2.92;;;;;;;18.38;75.21;94052.25;5075738;28;20189;-69
2022/09/17 00:34:19;;;;;;;3.47;2.70;;;;;;;18.36;74.84;94062.28;5074206;28;20205;-69
2022/09/17 00:36:46;;;;;;;4.38;3.53;;;;;;;18.36;74.67;94062.28;5075610;28;20181;-70
2022/09/17 00:39:15;;;;;;;5.45;3.45;;;;;;;18.35;74.96;94061.47;5075264;28;20538;-71
2022/09/17 00:41:42;;;;;;;6.32;4.03;;;;;;;18.36;75.09;94056.69;5075155;28;20215;-71
2022/09/17 00:44:41;;;;;;;6.15;5.00;;;;;;;18.32;75.28;94070.72;5074627;28;20308;-71
2022/09/17 00:47:16;;;;;;;8.43;5.63;;;;;;;18.29;75.16;94074.34;5074809;28;20201;-71
2022/09/17 00:49:44;;;;;;;7.38;4.80;;;;;;;18.27;75.38;94087.97;5075415;28;20188;-71
2022/09/17 00:52:14;;;;;;;4.90;4.40;;;;;;;18.24;75.40;94083.22;5074539;28;20197;-71
2022/09/17 00:54:45;;;;;;;5.70;4.03;;;;;;;18.26;75.66;94086.34;5074540;28;20597;-71
2022/09/17 00:57:12;;;;;;;5.72;3.33;;;;;;;18.27;75.50;94085.94;5075464;28;20196;-71
2022/09/17 00:59:39;;;;;;;5.35;3.63;;;;;;;18.28;75.63;94081.94;5075236;28;20204;-71
2022/09/17 01:02:06;;;;;;;3.60;3.25;;;;;;;18.28;75.70;94089.53;5073990;28;20201;-71
2022/09/17 01:04:33;;;;;;;4.88;3.47;;;;;;;18.26;75.48;94084.38;5075291;28;20493;-71
2022/09/17 01:07:08;;;;;;;5.50;3.25;;;;;;;18.26;75.63;94078.00;5074722;28;20206;-71
2022/09/17 01:09:43;;;;;;;3.72;3.00;;;;;;;18.25;75.45;94080.00;5074907;28;20258;-71
2022/09/17 01:12:21;;;;;;;5.38;3.63;;;;;;;18.24;75.55;94069.28;5074269;28;20197;-71
2022/09/17 01:15:05;;;;;;;4.88;3.50;;;;;;;18.25;75.54;94066.03;5074649;28;20251;-71
2022/09/17 01:17:40;;;;;;;8.00;4.05;;;;;;;18.20;75.42;94060.19;5075314;28;20189;-71
2022/09/17 01:20:45;;;;;;;4.40;4.00;;;;;;;18.18;75.70;94057.00;5074059;28;20207;-71
2022/09/17 01:23:30;;;;;;;5.60;3.65;;;;;;;18.17;75.81;94063.81;5074651;28;20200;-71
2022/09/17 01:26:07;;;;;;;6.80;4.80;;;;;;;18.17;75.86;94066.59;5075127;28;20193;-71
2022/09/17 01:28:41;;;;;;;3.72;3.28;;;;;;;18.17;75.98;94072.97;5075075;28;20203;-71
2022/09/17 01:31:24;;;;;;;5.05;3.45;;;;;;;18.18;75.76;94066.16;5074434;28;20193;-71
2022/09/17 01:34:00;;;;;;;5.15;3.60;;;;;;;18.16;75.73;94060.25;5074067;28;20620;-71
2022/09/17 01:36:35;;;;;;;5.72;3.38;;;;;;;18.16;75.97;94037.13;5074191;28;20619;-71
2022/09/17 01:39:07;;;;;;;5.50;3.83;;;;;;;18.17;75.83;94021.97;5074877;28;20215;-72
2022/09/17 01:41:41;;;;;;;4.82;3.90;;;;;;;18.20;75.59;94023.91;5075037;28;20209;-71
2022/09/17 01:44:12;;;;;;;4.63;3.63;;;;;;;18.20;75.73;94007.16;5074058;28;20192;-72
2022/09/17 01:46:44;;;;;;;4.25;3.42;;;;;;;18.17;75.78;94014.38;5075626;28;20189;-72
2022/09/17 01:49:13;;;;;;;3.75;3.45;;;;;;;18.17;76.30;94038.69;5078572;28;20204;-72
2022/09/17 01:51:43;;;;;;;4.13;3.72;;;;;;;18.17;76.11;94080.56;5078510;28;20204;-72
2022/09/17 01:54:14;;;;;;;4.30;3.90;;;;;;;18.17;76.10;94074.97;5078608;28;20240;-73
2022/09/17 01:56:44;;;;;;;4.60;3.40;;;;;;;18.16;76.19;94062.25;5078095;28;20271;-72
2022/09/17 01:59:15;;;;;;;3.78;3.33;;;;;;;18.14;75.84;94051.50;5078604;28;20221;-72
2022/09/17 02:01:45;;;;;;;4.53;3.35;;;;;;;18.13;76.06;94058.28;5078013;28;20208;-72
2022/09/17 02:04:15;;;;;;;3.60;3.30;;;;;;;18.15;76.47;94025.16;5078151;28;20204;-73
2022/09/17 02:06:46;;;;;;;3.90;3.30;;;;;;;18.14;75.71;94017.22;5078221;28;20185;-72
2022/09/17 02:09:15;;;;;;;4.57;3.47;;;;;;;18.08;75.98;94005.75;5078520;28;20173;-72
2022/09/17 02:11:44;;;;;;;3.63;3.08;;;;;;;18.05;76.04;93973.16;5077663;28;20212;-71
2022/09/17 02:14:13;;;;;;;3.75;3.45;;;;;;;18.06;75.91;93924.50;5077874;28;20237;-71
2022/09/17 02:16:47;;;;;;;5.07;3.80;;;;;;;18.05;76.31;93936.88;5077828;28;20200;-71
2022/09/17 02:19:17;;;;;;;4.20;3.83;;;;;;;18.06;76.21;93934.88;5077899;28;20201;-71
2022/09/17 02:21:47;;;;;;;5.22;3.63;;;;;;;18.03;76.27;93919.78;5077224;28;20204;-71
2022/09/17 02:24:17;;;;;;;6.07;4.00;;;;;;;18.04;76.44;93912.97;5077905;28;20616;-72
2022/09/17 02:26:48;;;;;;;3.97;3.47;;;;;;;18.01;77.22;93930.56;5078209;28;20186;-72
2022/09/17 02:29:19;;;;;;;6.00;4.35;;;;;;;18.03;77.36;93934.50;5078186;28;20196;-71
2022/09/17 02:31:48;;;;;;;6.20;4.68;;;;;;;18.07;77.42;93981.09;5077168;28;20209;-71
2022/09/17 02:34:15;;;;;;;6.55;3.90;;;;;;;18.07;77.47;93967.13;5077989;28;20201;-71
2022/09/17 02:36:41;;;;;;;4.38;3.92;;;;;;;18.04;77.01;93972.34;5077929;28;20205;-70
2022/09/17 02:39:09;;;;;;;6.78;4.20;;;;;;;18.02;77.11;93968.44;5077550;28;20189;-71
2022/09/17 02:41:51;;;;;;;3.88;3.45;;;;;;;17.99;77.07;93933.78;5077073;28;20205;-71
2022/09/17 02:44:26;;;;;;;5.80;4.30;;;;;;;17.96;77.06;93939.44;5077377;28;20191;-71
2022/09/17 02:47:29;;;;;;;4.28;3.80;;;;;;;17.94;76.99;93900.81;5077937;28;20246;-71
2022/09/17 02:50:15;;;;;;;6.85;4.18;;;;;;;17.93;77.31;93946.66;5072298;28;20255;-71
2022/09/17 02:52:49;;;;;;;5.85;4.00;;;;;;;17.93;76.82;93929.91;5076041;28;20208;-71
2022/09/17 02:55:19;;;;;;;4.70;4.15;;;;;;;17.92;77.49;93933.94;5076360;28;20216;-71
2022/09/17 02:57:47;;;;;;;5.00;3.85;;;;;;;17.93;77.31;93896.44;5075907;28;20605;-71
2022/09/17 03:00:16;;;;;;;4.65;4.22;;;;;;;17.91;77.51;93920.41;5077162;28;20201;-71
2022/09/17 03:02:46;;;;;;;4.68;3.95;;;;;;;17.90;77.65;93902.09;5077358;28;20189;-72
2022/09/17 03:05:15;;;;;;;4.88;4.13;;;;;;;17.89;77.99;93909.69;5077529;28;20193;-71
2022/09/17 03:07:41;;;;;;;5.30;4.07;;;;;;;17.91;77.99;93912.06;5077427;28;20196;-71
2022/09/17 03:10:09;;;;;;;4.07;3.67;;;;;;;17.90;78.37;93927.19;5077289;28;20216;-72
2022/09/17 03:12:37;;;;;;;4.47;3.90;;;;;;;17.92;77.86;93956.25;5077247;28;20201;-72
2022/09/17 03:15:05;;;;;;;4.30;3.90;;;;;;;17.92;78.23;93933.16;5077270;28;20189;-72
2022/09/17 03:17:32;;;;;;;4.65;4.03;;;;;;;17.90;78.48;93932.78;5076483;28;20211;-72
2022/09/17 03:19:59;;;;;;;4.93;4.18;;;;;;;17.87;78.43;93897.41;5076142;28;20278;-72
2022/09/17 03:22:27;;;;;;;4.85;3.72;;;;;;;17.86;78.26;93893.00;5076725;28;20552;-72
2022/09/17 03:24:54;;;;;;;5.70;4.00;;;;;;;17.84;78.29;93882.28;5076803;28;20196;-72
2022/09/17 03:27:20;;;;;;;4.97;3.90;;;;;;;17.85;78.24;93897.03;5076268;28;20193;-73
2022/09/17 03:29:47;;;;;;;4.68;4.28;;;;;;;17.83;78.40;93910.59;5076591;28;20280;-72
2022/09/17 03:32:14;;;;;;;4.60;3.70;;;;;;;17.81;78.08;93911.03;5075827;28;20233;-72
2022/09/17 03:34:41;;;;;;;4.28;3.63;;;;;;;17.79;78.50;93905.09;5076782;28;20181;-73
2022/09/17 03:37:07;;;;;;;4.13;3.38;;;;;;;17.79;78.35;93903.09;5076998;28;20196;-72
2022/09/17 03:39:36;;;;;;;6.65;4.22;;;;;;;17.82;78.71;93879.13;5075892;28;20205;-72
2022/09/17 03:42:02;;;;;;;4.38;3.60;;;;;;;17.84;78.94;93898.25;5075827;28;20197;-72
2022/09/17 03:44:29;;;;;;;3.92;3.53;;;;;;;17.83;79.17;93874.34;5076582;28;20185;-73
2022/09/17 03:46:56;;;;;;;6.03;4.05;;;;;;;17.83;79.61;93885.50;5076524;28;20181;-72
2022/09/17 03:49:23;;;;;;;4.60;4.03;;;;;;;17.83;79.65;93866.78;5075811;28;20228;-72
2022/09/17 03:51:50;;;;;;;4.97;3.80;;;;;;;17.84;79.17;93882.28;5075549;28;20229;-72
2022/09/17 03:54:17;;;;;;;4.97;4.45;;;;;;;17.87;79.34;93892.59;5076127;28;20185;-72
2022/09/17 03:56:45;;;;;;;7.82;4.45;;;;;;;17.89;79.61;93894.94;5076391;28;20189;-72
2022/09/17 03:59:12;;;;;;;5.30;3.78;;;;;;;17.85;79.80;93913.75;5075535;28;20215;-72
2022/09/17 04:01:39;;;;;;;4.75;4.35;;;;;;;17.84;80.44;93909.41;5076261;28;20275;-72
2022/09/17 04:04:06;;;;;;;5.03;4.00;;;;;;;17.86;79.89;93918.09;5075914;28;20197;-73
2022/09/17 04:06:33;;;;;;;5.18;3.97;;;;;;;17.86;79.70;93909.75;5076259;28;20250;-72
2022/09/17 04:09:02;;;;;;;4.75;4.25;;;;;;;17.89;79.73;93914.47;5074498;28;20525;-72
2022/09/17 04:11:29;;;;;;;4.90;3.92;;;;;;;17.88;79.71;93907.31;5075429;28;20288;-72
2022/09/17 04:13:57;;;;;;;4.40;4.00;;;;;;;17.91;79.80;93923.22;5075920;28;20586;-72
2022/09/17 04:16:24;;;;;;;4.72;4.00;;;;;;;17.92;80.27;93949.88;5075144;28;20189;-71
2022/09/17 04:18:50;;;;;;;5.60;4.20;;;;;;;17.90;80.47;93972.63;5075242;28;20196;-72
2022/09/17 04:21:17;;;;;;;4.88;3.70;;;;;;;17.92;80.38;93975.78;5075011;28;20217;-72
2022/09/17 04:23:44;;;;;;;6.43;4.60;;;;;;;17.93;79.94;93991.28;5075696;28;20174;-72
2022/09/17 04:26:11;;;;;;;4.35;3.95;;;;;;;17.93;80.16;93984.91;5074806;28;20212;-72
2022/09/17 04:28:37;;;;;;;4.22;3.83;;;;;;;17.91;79.87;93981.78;5076095;28;20510;-72
2022/09/17 04:31:05;;;;;;;5.55;4.35;;;;;;;17.90;80.54;94002.50;5075932;28;20200;-71
2022/09/17 04:33:33;;;;;;;7.13;3.85;;;;;;;17.89;79.96;94009.31;5075121;28;20212;-72
2022/09/17 04:36:00;;;;;;;6.75;4.00;;;;;;;17.89;80.00;94023.25;5074978;28;20205;-72
2022/09/17 04:38:27;;;;;;;4.80;4.25;;;;;;;17.88;80.83;94036.41;5075272;28;20207;-72
2022/09/17 04:40:56;;;;;;;5.25;4.20;;;;;;;17.85;80.77;94039.25;5074721;28;20217;-72
2022/09/17 04:43:22;;;;;;;9.25;5.00;;;;;;;17.82;81.29;94042.91;5074882;28;20212;-72
2022/09/17 04:45:50;;;;;;;5.25;4.22;;;;;;;17.82;80.93;94042.91;5075271;28;20613;-72
2022/09/17 04:48:18;;;;;;;5.63;3.83;;;;;;;17.84;80.78;94037.69;5075429;28;20181;-72
2022/09/17 04:50:45;;;;;;;4.65;3.97;;;;;;;17.89;80.16;94059.50;5075574;28;20192;-71
2022/09/17 04:53:12;;;;;;;5.05;3.67;;;;;;;17.91;80.79;94065.47;5075170;28;20264;-72
2022/09/17 04:55:39;;;;;;;5.88;3.97;;;;;;;17.93;80.68;94069.38;5074254;28;20258;-71
2022/09/17 04:58:06;;;;;;;6.68;3.67;;;;;;;17.99;81.46;94089.22;5075310;28;20196;-72
2022/09/17 05:00:34;;;;;;;7.53;2.80;;;;;;;18.07;80.34;94092.69;5075230;28;20216;-72
2022/09/17 05:03:01;;;;;;;3.17;2.60;;;;;;;18.16;79.21;94082.56;5074098;28;20193;-72
2022/09/17 05:05:29;;;;;;;6.13;3.20;;;;;;;18.25;79.09;94068.03;5074496;28;20211;-72
2022/09/17 05:07:56;;;;;;;6.88;3.00;;;;;;;18.26;79.20;94064.84;5074097;28;20201;-72
2022/09/17 05:10:24;;;;;;;6.88;2.90;;;;;;;18.28;79.37;94062.41;5074342;28;20215;-72
2022/09/17 05:12:51;;;;;;;5.10;2.78;;;;;;;18.27;79.74;94052.47;5073996;28;20208;-72
2022/09/17 05:15:18;;;;;;;4.95;2.40;;;;;;;18.23;79.17;94060.13;5074290;28;20262;-72
2022/09/17 05:17:46;;;;;;;4.32;2.88;;;;;;;18.24;79.07;94052.53;5075351;28;20188;-72
2022/09/17 05:20:13;;;;;;;5.22;3.13;;;;;;;18.22;79.17;94050.13;5074926;28;20209;-72
2022/09/17 05:22:45;;;;;;;6.22;2.90;;;;;;;18.21;78.74;94037.41;5081157;28;20201;-72
2022/09/17 05:25:12;;;;;;;5.05;2.63;;;;;;;18.18;78.83;94027.09;5081718;28;20196;-71
2022/09/17 05:27:40;;;;;;;4.70;2.60;;;;;;;18.20;78.25;94021.09;5080916;28;20207;-69
2022/09/17 05:30:08;;;;;;;3.72;2.45;;;;;;;18.20;78.38;94021.88;5081678;28;20192;-69
2022/09/17 05:32:35;;;;;;;5.93;2.80;;;;;;;18.23;78.41;94014.69;5081640;28;20192;-69
2022/09/17 05:35:02;;;;;;;4.55;2.50;;;;;;;18.20;78.18;94015.53;5081454;28;20192;-69
2022/09/17 05:37:28;;;;;;;4.32;2.53;;;;;;;18.23;78.01;94025.84;5080702;28;20204;-69
2022/09/17 05:39:57;;;;;;;4.25;2.60;;;;;;;18.28;77.98;94037.28;5080481;28;20197;-69
2022/09/17 05:42:24;;;;;;;7.95;3.22;;;;;;;18.34;77.39;94032.00;5080692;28;20208;-68
2022/09/17 05:44:51;;;;;;;5.80;2.85;;;;;;;18.39;77.06;94030.72;5081260;28;20212;-69
2022/09/17 05:47:18;;;;;;;3.60;2.35;;;;;;;18.42;76.30;94049.41;5080329;28;20193;-69
2022/09/17 05:49:44;;;;;;;5.63;3.00;;;;;;;18.45;75.84;94024.22;5080340;28;20536;-69
2022/09/17 05:52:11;;;;;;;4.00;2.60;;;;;;;18.50;75.35;94034.06;5081485;28;20196;-69
2022/09/17 05:54:38;;;;;;;4.22;2.45;;;;;;;18.52;75.41;94020.50;5080604;28;20188;-69
2022/09/17 05:57:06;;;;;;;4.85;3.00;;;;;;;18.56;75.77;94032.38;5081661;28;20536;-73
2022/09/17 05:59:34;;;;;;;4.85;2.88;;;;;;;18.55;75.99;94022.41;5081485;28;20304;-73
2022/09/17 06:02:01;;;;;;;5.72;2.95;;;;;;;18.58;75.67;94021.53;5080477;28;20299;-73
2022/09/17 06:04:28;;;;;;;6.22;2.67;;;;;;;18.58;75.42;94007.59;5080462;28;20197;-72
2022/09/17 06:06:55;;;;;;;6.97;3.05;;;;;;;18.59;75.07;94011.16;5080509;28;20499;-72
2022/09/17 06:09:22;;;;;;;4.97;2.70;;;;;;;18.61;74.86;94026.28;5081524;28;20185;-72
2022/09/17 06:11:49;;;;;;;4.10;2.35;;;;;;;18.67;74.70;94034.94;5080890;28;20189;-72
2022/09/17 06:14:17;;;;;;;5.45;3.30;;;;;;;18.68;74.86;94056.84;5081052;28;20290;-72
2022/09/17 06:16:44;;;;;;;4.75;2.83;;;;;;;18.76;74.91;94061.09;5081757;28;20185;-72
2022/09/17 06:19:10;;;;;;;4.97;2.80;;;;;;;18.80;74.46;94093.75;5080861;28;20208;-70
2022/09/17 06:21:37;;;;;;;2.67;2.30;;;;;;;18.76;75.70;94091.81;5081400;28;20205;-69
2022/09/17 06:24:04;;;;;;;4.50;2.53;;;;;;;18.72;76.24;94102.28;5080532;28;20212;-69
2022/09/17 06:26:31;;;;;;;5.57;2.70;;;;;;;18.66;77.72;94109.53;5080518;28;20198;-70
2022/09/17 06:28:59;;;;;;;2.80;2.60;;;;;;;18.62;77.70;94119.22;5081262;28;20645;-69
2022/09/17 06:31:27;;;;;;;5.53;2.50;;;;;;;18.58;77.67;94124.06;5080946;28;20185;-69
2022/09/17 06:33:56;;;;;;;3.45;2.13;;;;;;;18.55;77.68;94125.72;5076182;28;20262;-70
2022/09/17 06:36:23;;;;;;;5.68;2.42;;;;;;;18.57;78.16;94128.88;5077849;28;20330;-69
2022/09/17 06:38:49;;;;;;;3.75;2.40;;;;;;;18.54;78.33;94118.56;5077247;28;20197;-69
2022/09/17 06:41:17;;;;;;;2.28;2.00;;;;;;;18.54;78.47;94112.97;5077128;28;20217;-69
2022/09/17 06:43:44;;;;;;;5.43;2.40;;;;;;;18.52;78.66;94107.03;5077923;28;20193;-69
2022/09/17 06:46:11;;;;;;;4.80;2.30;;;;;;;18.52;78.86;94098.66;5078010;28;20363;-69
2022/09/17 06:48:39;;;;;;;3.35;2.40;;;;;;;18.52;79.01;94088.28;5076798;28;20209;-69
2022/09/17 06:51:07;;;;;;;6.53;3.13;;;;;;;18.50;79.21;94093.50;5076863;28;20204;-69
2022/09/17 06:53:35;;;;;;;4.28;2.88;;;;;;;18.48;79.67;94087.56;5077685;28;20185;-69
2022/09/17 06:56:03;;;;;;;5.57;2.55;;;;;;;18.50;79.70;94078.75;5076461;28;20212;-69
2022/09/17 06:58:31;;;;;;;3.50;2.92;;;;;;;18.50;80.05;94082.31;5076714;28;20193;-69
2022/09/17 07:01:00;;;;;;;3.88;2.55;;;;;;;18.50;80.25;94062.00;5077211;28;20209;-68
2022/09/17 07:03:26;;;;;;;4.18;2.72;;;;;;;18.52;80.50;94060.38;5077604;28;20208;-70
2022/09/17 07:05:55;;;;;;;7.10;3.80;;;;;;;18.54;80.59;94037.59;5077494;28;20205;-68
2022/09/17 07:08:21;;;;;;;3.42;3.13;;;;;;;18.59;80.29;94022.31;5077367;28;20201;-68
2022/09/17 07:10:48;;;;;;;5.28;3.72;;;;;;;18.63;79.92;94032.22;5076994;28;20204;-69
2022/09/17 07:13:16;;;;;;;3.53;3.15;;;;;;;18.68;79.64;94028.91;5076140;28;20225;-69
2022/09/17 07:15:43;;;;;;;3.30;2.65;;;;;;;18.74;79.51;94015.28;5077223;28;20598;-69
2022/09/17 07:18:11;;;;;;;4.28;3.00;;;;;;;18.79;79.54;94005.59;5076277;28;20208;-68
2022/09/17 07:20:39;;;;;;;3.97;3.17;;;;;;;18.86;80.08;93995.06;5076133;28;20197;-67
2022/09/17 07:23:07;;;;;;;5.00;3.30;;;;;;;18.95;79.47;93972.91;5076993;28;20197;-69
2022/09/17 07:25:34;;;;;;;3.33;3.03;;;;;;;19.06;80.14;93991.44;5077183;28;20177;-69
2022/09/17 07:28:03;;;;;;;3.88;3.10;;;;;;;19.12;79.38;94015.63;5076101;28;20200;-69
2022/09/17 07:30:29;;;;;;;4.00;3.17;;;;;;;19.19;78.98;94011.91;5076969;28;20178;-69
2022/09/17 07:32:56;;;;;;;5.10;2.95;;;;;;;19.24;78.40;94020.56;5075876;28;20200;-69
2022/09/17 07:35:23;;;;;;;3.88;3.20;;;;;;;19.26;77.67;94006.16;5076940;28;20189;-69
2022/09/17 07:37:50;;;;;;;5.93;4.90;;;;;;;19.31;77.51;93996.44;5076135;28;20193;-69
2022/09/17 07:40:18;;;;;;;5.70;3.92;;;;;;;19.41;78.37;94001.78;5075819;28;20515;-69
2022/09/17 07:42:44;;;;;;;6.60;5.15;;;;;;;19.57;78.27;93991.81;5076451;28;20205;-69
2022/09/17 07:45:11;;;;;;;7.93;4.22;;;;;;;19.72;77.67;93981.91;5075857;28;20200;-69
2022/09/17 07:47:41;;;;;;;6.20;4.10;;;;;;;19.83;76.50;93987.25;5075840;28;20205;-69
2022/09/17 07:50:09;;;;;;;4.05;3.30;;;;;;;19.85;75.68;93993.16;5075429;28;20200;-69
2022/09/17 07:52:35;;;;;;;5.70;3.50;;;;;;;19.85;75.66;93998.75;5076307;28;20186;-69
2022/09/17 07:55:02;;;;;;;5.70;3.33;;;;;;;19.84;76.16;93997.19;5076168;28;20189;-69
2022/09/17 07:57:30;;;;;;;8.52;3.65;;;;;;;19.85;75.89;93993.94;5075479;28;20196;-69
2022/09/17 07:59:57;;;;;;;5.63;3.78;;;;;;;19.94;76.02;93984.94;5075660;28;20208;-69
2022/09/17 08:02:24;;;;;;;5.13;3.53;;;;;;;20.04;75.67;93974.69;5075179;28;20238;-70
2022/09/17 08:04:51;;;;;;;6.32;3.40;;;;;;;20.10;76.11;93981.31;5075637;28;20205;-69
2022/09/17 08:07:17;;;;;;;6.35;3.50;;;;;;;20.15;75.67;93981.59;5075706;28;20193;-69
2022/09/17 08:09:44;;;;;;;7.80;3.50;;;;;;;20.20;75.79;93978.22;5075473;28;20193;-69
2022/09/17 08:12:11;;;;;;;5.07;3.90;;;;;;;20.23;75.00;93975.78;5075234;28;20530;-69
2022/09/17 08:14:41;;;;;;;6.95;3.95;;;;;;;20.24;74.72;93971.75;5075003;28;20237;-69
2022/09/17 08:17:09;;;;;;;3.92;2.80;;;;;;;20.25;74.61;93964.91;5074979;28;20196;-68
2022/09/17 08:19:36;;;;;;;4.60;2.90;;;;;;;20.29;74.24;93963.59;5074916;28;20201;-69
2022/09/17 08:22:03;;;;;;;4.70;2.78;;;;;;;20.33;74.36;93969.88;5074706;28;20228;-69
2022/09/17 08:24:30;;;;;;;3.97;2.90;;;;;;;20.38;74.17;93968.56;5075014;28;20201;-69
2022/09/17 08:26:57;;;;;;;4.32;2.80;;;;;;;20.49;73.08;93971.06;5075364;28;20523;-69
2022/09/17 08:29:24;;;;;;;3.58;2.30;;;;;;;20.61;71.49;93975.94;5074824;28;20197;-69
2022/09/17 08:31:52;;;;;;;5.43;2.75;;;;;;;20.66;70.66;93972.56;5074566;28;20635;-69
2022/09/17 08:34:19;;;;;;;3.83;2.70;;;;;;;20.72;70.54;93970.03;5075479;28;20250;-68
2022/09/17 08:36:46;;;;;;;6.65;2.70;;;;;;;20.72;70.44;93973.59;5075357;28;20652;-69
2022/09/17 08:39:13;;;;;;;3.30;3.00;;;;;;;20.71;70.76;93974.06;5075100;28;20200;-69
2022/09/17 08:41:48;;;;;;;4.63;3.03;;;;;;;20.67;70.36;93974.94;5075726;28;20213;-69
2022/09/17 08:44:26;;;;;;;4.25;2.80;;;;;;;20.68;70.47;93962.50;5075290;28;20184;-69
2022/09/17 08:47:04;;;;;;;3.45;3.15;;;;;;;20.66;70.07;93964.16;5075600;28;20185;-69
2022/09/17 08:49:34;;;;;;;3.92;3.17;;;;;;;20.63;69.85;93960.25;5074713;28;20197;-70
2022/09/17 08:52:51;;;;;;;3.97;3.38;;;;;;;20.59;69.45;93967.22;5075237;28;20189;-70
2022/09/17 08:55:30;;;;;;;6.50;2.95;;;;;;;20.54;70.15;93974.13;4997311;28;20203;-70
2022/09/17 08:58:04;;;;;;;3.83;2.90;;;;;;;20.50;69.61;93972.66;5013959;28;20187;-70
2022/09/17 09:00:38;;;;;;;4.40;2.90;;;;;;;20.39;69.88;93965.31;5050338;28;20643;-69
2022/09/17 09:03:21;;;;;;;4.93;3.17;;;;;;;20.33;69.61;93963.50;5074511;28;20219;-69
2022/09/17 09:05:49;;;;;;;4.03;2.67;;;;;;;20.25;69.86;93962.91;5074491;28;20189;-70
2022/09/17 09:08:21;;;;;;;3.42;3.10;;;;;;;20.19;70.31;93968.28;5075499;28;20189;-69
2022/09/17 09:10:50;;;;;;;3.67;3.10;;;;;;;20.17;70.74;93953.13;5075381;28;20189;-69
2022/09/17 09:13:20;;;;;;;4.95;2.85;;;;;;;20.15;70.84;93975.97;5075073;28;20264;-69
2022/09/17 09:15:51;;;;;;;5.47;2.90;;;;;;;20.13;71.66;93977.66;5075259;28;20208;-69
2022/09/17 09:18:21;;;;;;;3.72;2.60;;;;;;;20.09;72.17;93980.53;5075077;28;20196;-69
2022/09/17 09:20:52;;;;;;;3.63;3.22;;;;;;;20.04;73.20;93983.06;5074839;28;20193;-69
2022/09/17 09:23:21;;;;;;;3.03;2.65;;;;;;;19.98;74.12;93994.03;5074970;28;20216;-69
2022/09/17 09:25:54;;;;;;;4.10;3.30;;;;;;;19.92;75.69;94004.19;5074773;28;20193;-69
2022/09/17 09:28:37;;;;;;;5.97;3.35;;;;;;;19.90;76.35;94015.03;5075086;28;20200;-69
2022/09/17 09:31:23;;;;;;;5.63;3.90;;;;;;;19.84;76.41;94023.16;5074329;28;20189;-69
2022/09/17 09:33:51;;;;;;;5.05;3.72;;;;;;;19.81;76.88;94034.44;5075161;28;20200;-69
2022/09/17 09:36:20;;;;;;;4.25;3.38;;;;;;;19.75;77.76;94031.38;5074966;28;20200;-69
2022/09/17 09:38:56;;;;;;;7.47;4.20;;;;;;;19.71;78.73;94039.84;5074494;28;20207;-70
2022/09/17 09:41:27;;;;;;;5.18;4.30;;;;;;;19.69;79.83;94047.91;5075063;28;20243;-70
2022/09/17 09:44:00;;;;;;;4.55;4.15;;;;;;;19.67;80.45;94060.75;5074008;28;20197;-70
2022/09/17 09:46:37;;;;;;;6.50;4.30;;;;;;;19.62;80.93;94064.84;5074694;28;20200;-69
2022/09/17 09:49:11;;;;;;;5.93;4.80;;;;;;;19.60;80.86;94070.06;5074525;28;20201;-69
2022/09/17 09:51:48;;;;;;;4.88;3.97;;;;;;;19.57;81.92;94065.34;5074004;28;20195;-69
2022/09/17 09:54:26;;;;;;;7.57;3.95;;;;;;;19.56;82.38;94086.13;5073876;28;20193;-69
2022/09/17 09:56:56;;;;;;;6.45;3.78;;;;;;;19.55;82.61;94086.59;5075030;28;20526;-69
2022/09/17 09:59:23;;;;;;;8.63;4.13;;;;;;;19.53;83.07;94035.88;5074337;28;20227;-69
2022/09/17 10:01:50;;;;;;;7.28;4.18;;;;;;;19.50;83.13;94020.78;5073791;28;20209;-70
2022/09/17 10:04:20;;;;;;;5.53;3.92;;;;;;;19.46;83.10;94001.28;5073860;28;20204;-70
2022/09/17 10:06:48;;;;;;;5.32;4.82;;;;;;;19.45;82.94;93980.13;5073825;28;20193;-70
2022/09/17 10:09:16;;;;;;;7.63;5.50;;;;;;;19.44;82.99;93961.00;5078309;28;20204;-70
2022/09/17 10:11:43;;;;;;;8.73;5.85;;;;;;;19.40;82.86;93935.13;5077639;28;20235;-70
2022/09/17 10:14:24;;;;;;;10.27;6.90;;;;;;;19.32;83.38;93934.53;5077252;28;20228;-70
2022/09/17 10:16:53;;;;;;;7.72;4.80;;;;;;;19.27;83.07;93925.88;5077436;28;20197;-70
2022/09/17 10:19:24;;;;;;;4.78;4.38;;;;;;;19.24;82.79;93928.31;5077419;28;20199;-70
2022/09/17 10:21:51;;;;;;;5.05;3.90;;;;;;;19.24;83.07;93907.94;5078307;28;20209;-70
2022/09/17 10:24:25;;;;;;;5.18;3.80;;;;;;;19.21;83.28;93911.66;5077952;28;20617;-69
2022/09/17 10:26:52;;;;;;;5.75;3.83;;;;;;;19.16;83.06;93924.09;5077936;28;20613;-69
2022/09/17 10:29:20;;;;;;;5.18;3.80;;;;;;;19.15;83.19;93925.34;5078158;28;20200;-69
2022/09/17 10:31:48;;;;;;;4.22;3.42;;;;;;;19.17;83.58;93933.28;5078211;28;20193;-70
2022/09/17 10:34:21;;;;;;;5.28;4.30;;;;;;;19.16;83.99;93940.88;5077881;28;20181;-69
2022/09/17 10:36:49;;;;;;;5.85;4.80;;;;;;;19.16;84.33;93952.06;5061366;28;20193;-69
2022/09/17 10:39:30;;;;;;;6.25;5.18;;;;;;;19.19;84.56;93914.84;5077951;28;20628;-69
2022/09/17 10:41:58;;;;;;;5.78;4.10;;;;;;;19.20;84.21;93913.63;5077997;28;20302;-70
2022/09/17 10:44:27;;;;;;;7.53;4.72;;;;;;;19.21;84.65;93920.03;5078023;28;20185;-69
2022/09/17 10:46:54;;;;;;;7.47;5.13;;;;;;;19.26;85.01;93910.31;5077210;28;20204;-70
2022/09/17 10:49:35;;;;;;;7.45;4.90;;;;;;;19.27;85.27;93912.66;5076886;28;20203;-70
2022/09/17 10:52:12;;;;;;;6.82;4.95;;;;;;;19.29;84.75;93898.28;5077519;28;20193;-70
2022/09/17 10:54:53;;;;;;;5.55;4.78;;;;;;;19.29;84.66;93903.88;5077423;28;20519;-70
2022/09/17 10:57:26;;;;;;;5.38;4.82;;;;;;;19.31;84.82;93923.75;5076922;28;20200;-69
2022/09/17 11:00:01;;;;;;;6.65;4.88;;;;;;;19.29;85.20;93929.81;5076580;28;20205;-70
2022/09/17 11:02:54;;;;;;;3.50;2.83;;;;;;;19.28;84.47;93936.63;5076553;28;20213;-70
2022/09/17 11:05:33;;;;;;;3.78;2.90;;;;;;;19.26;83.52;93925.09;5069624;28;20227;-69
2022/09/17 11:08:04;;;;;;;3.10;2.47;;;;;;;19.24;83.31;93961.06;5077540;28;20189;-69
2022/09/17 11:10:33;;;;;;;3.70;3.03;;;;;;;19.22;82.76;93927.19;5076259;28;20197;-69
2022/09/17 11:13:11;;;;;;;4.55;3.53;;;;;;;19.21;83.27;93954.34;5076156;28;20212;-68
2022/09/17 11:15:48;;;;;;;6.15;3.47;;;;;;;19.22;82.44;93944.72;5076585;28;20189;-69
2022/09/17 11:18:37;;;;;;;4.03;3.20;;;;;;;19.27;82.83;93949.00;5075949;28;20196;-69
2022/09/17 11:21:16;;;;;;;5.28;3.75;;;;;;;19.29;83.08;93945.78;5076149;28;20367;-69
2022/09/17 11:24:08;;;;;;;5.25;3.55;;;;;;;19.36;83.47;93937.25;5077058;28;20252;-69
2022/09/17 11:26:39;;;;;;;5.00;3.17;;;;;;;19.38;83.18;93927.16;5075903;28;20617;-69
2022/09/17 11:29:32;;;;;;;3.38;2.78;;;;;;;19.41;83.46;93936.69;5076070;28;20208;-70
2022/09/17 11:32:04;;;;;;;3.80;3.03;;;;;;;19.44;83.47;93921.84;5076982;28;20200;-69
2022/09/17 11:34:36;;;;;;;3.03;2.78;;;;;;;19.45;83.91;93913.00;5076020;28;20197;-69
2022/09/17 11:37:10;;;;;;;3.65;3.15;;;;;;;19.48;84.08;93908.56;5076548;28;20200;-69
2022/09/17 11:39:43;;;;;;;3.03;2.05;;;;;;;19.48;82.23;93892.56;5075771;28;20257;-69
2022/09/17 11:42:14;;;;;;;2.90;1.88;;;;;;;19.49;79.28;93882.94;5075664;28;20291;-69
2022/09/17 11:44:47;;;;;;;2.13;1.50;;;;;;;19.49;77.13;93898.94;5076130;28;20254;-69
2022/09/17 11:47:17;;;;;;;2.28;1.45;;;;;;;19.50;75.88;93883.75;5076375;28;20190;-69
2022/09/17 11:49:49;;;;;;;2.63;1.58;;;;;;;19.51;75.08;93884.53;5075964;28;20207;-69